Terminal Aerodrome Forecast
Issued by NWS

Home | Current Version | Previous Version | Text Only | Print | Product List | Glossary On
Versions: 1 2 3 4 5 6 7 8 9 10 11 12 13 14 15 16 17 18 19
000
FTUS43 KDMX 191729
TAFFOD
TAF
KFOD 191729Z 1918/2018 18018G25KT P6SM BKN200
     FM200100 17011KT P6SM BKN050 OVC100
     FM200700 18009KT P6SM VCSH OVC035=

USA.gov is the U.S. government's official web portal to all federal, state and local government web resources and services.